HISTORICAL SENSOR DATA

Sensor Data Report

DB LIVE
CURRENT TIME--:--:--
DEVICE NETWORK Gateway Status
13 ESP · realtime ~1s · history 60s
Weather WS-MOD-01
ONLINE
Actuator ACT-MOD-01
OFFLINE
Mainboard L3 MB-L3-01
ONLINE
Mainboard L5 MB-L5-01
ONLINE
Remote AC AC-REMOTE-01
ONLINE
PZEM L3-01 PWR-L3-01
OFFLINE
PZEM L3-02 PWR-L3-02
OFFLINE
PZEM L3-03 PWR-L3-03
OFFLINE
PZEM L3-04 PWR-L3-04
OFFLINE
PZEM L5-01 PWR-L5-01
ONLINE
PZEM L5-02 PWR-L5-02
ONLINE
PZEM L5-03 PWR-L5-03
OFFLINE
PZEM L5-04 PWR-L5-04
OFFLINE
REPORT FILTER

Periode & Sensor

DATABASE HISTORY
RESET
QUICK RANGE Hari ini 7 hari 30 hari
PERIODE09 Aug 2026sampai 07 Sep 2026
TOTAL DATA86,446sensor readings
MINIMUM-0.50sesuai filter
AVERAGE74.05sesuai filter
MAXIMUM32,564.20sesuai filter
REPORT RESULT

Data Sensor

09/08/2026 — 07/09/2026 EXPORT CSV
NOTANGGALWAKTUDEVICECHANNELSENSORVALUEUNIT
501 07/09/2026 04:28:00 PWR-L5-01Power Meter L5 PZEM 01 PZEM-L5-01-CURR PZEM L5-01 Current 0.12 A
502 07/09/2026 04:28:00 WS-MOD-01Weather Station Module WS-WIND Kecepatan Angin 8.05 m/s
503 07/09/2026 04:28:00 MB-L3-01Mainboard Lantai 3 L3-SHT-01-T SHT20 1 Temperature 27.80 °C
504 07/09/2026 04:28:00 PWR-L5-01Power Meter L5 PZEM 01 PZEM-L5-01-ENERGY PZEM L5-01 Energy 0.11 kWh
505 07/09/2026 04:28:00 MB-L3-01Mainboard Lantai 3 L3-AI-01 Analog Input 1 3.12 V
506 07/09/2026 04:28:00 WS-MOD-01Weather Station Module WS-TEMP Suhu Udara 18.10 °C
507 07/09/2026 04:28:00 MB-L5-01Mainboard Lantai 5 L5-SHT-02-T SHT20 2 Temperature 28.30 °C
508 07/09/2026 04:28:00 MB-L5-01Mainboard Lantai 5 L5-HFT-02 Heat Flow Temperature 2 21.60 °C
509 07/09/2026 04:28:00 PWR-L5-01Power Meter L5 PZEM 01 PZEM-L5-01-PF PZEM L5-01 Power Factor 0.39
510 07/09/2026 04:28:00 MB-L3-01Mainboard Lantai 3 L3-SHT-01-RH SHT20 1 Humidity 47.20 %RH
511 07/09/2026 04:28:00 MB-L5-01Mainboard Lantai 5 L5-BGT-03 Black Globe Temperature 3 25.80 °C
512 07/09/2026 04:28:00 MB-L3-01Mainboard Lantai 3 L3-AI-05 Analog Input 5 3.12 V
513 07/09/2026 04:28:00 WS-MOD-01Weather Station Module WS-RH Kelembapan Udara 82.50 %RH
514 07/09/2026 04:28:00 MB-L5-01Mainboard Lantai 5 L5-AI-02 Analog Input 2 3.05 V
515 07/09/2026 04:28:00 MB-L5-01Mainboard Lantai 5 L5-AI-06 Analog Input 6 3.05 V
516 07/09/2026 04:28:00 MB-L5-01Mainboard Lantai 5 L5-RAD-02 Radiation 2 1.00 W/m²
517 07/09/2026 04:28:00 MB-L3-01Mainboard Lantai 3 L3-SHT-03-RH SHT20 3 Humidity 46.20 %RH
518 07/09/2026 04:28:00 PWR-L5-02Power Meter L5 PZEM 02 PZEM-L5-02-VOLT PZEM L5-02 Voltage 226.10 V
519 07/09/2026 04:28:00 MB-L5-01Mainboard Lantai 5 L5-SHT-03-RH SHT20 3 Humidity 46.80 %RH
520 07/09/2026 04:28:00 WS-MOD-01Weather Station Module WS-PRES Tekanan Udara 910.00 hPa
521 07/09/2026 04:28:00 WS-MOD-01Weather Station Module WS-DIR Arah Angin 67.60 °
522 07/09/2026 04:28:00 PWR-L5-02Power Meter L5 PZEM 02 PZEM-L5-02-CURR PZEM L5-02 Current 0.00 A
523 07/09/2026 04:28:00 MB-L3-01Mainboard Lantai 3 L3-LUX-02 Illuminance / LUX 2 0.20 lux
524 07/09/2026 04:28:00 MB-L5-01Mainboard Lantai 5 L5-LUX-06 Illuminance / LUX 6 0.10 lux
525 07/09/2026 04:28:00 MB-L3-01Mainboard Lantai 3 L3-SHT-03-T SHT20 3 Temperature 28.30 °C
526 07/09/2026 04:28:00 MB-L5-01Mainboard Lantai 5 L5-HFT-01 Heat Flow Temperature 1 22.60 °C
527 07/09/2026 04:28:00 MB-L5-01Mainboard Lantai 5 L5-LUX-04 Illuminance / LUX 4 0.10 lux
528 07/09/2026 04:28:00 MB-L5-01Mainboard Lantai 5 L5-BGT-02 Black Globe Temperature 2 26.00 °C
529 07/09/2026 04:28:00 MB-L5-01Mainboard Lantai 5 L5-SHT-01-T SHT20 1 Temperature 27.80 °C
530 07/09/2026 04:28:00 MB-L3-01Mainboard Lantai 3 L3-LUX-04 Illuminance / LUX 4 0.10 lux
531 07/09/2026 04:28:00 MB-L3-01Mainboard Lantai 3 L3-AI-04 Analog Input 4 3.12 V
532 07/09/2026 04:28:00 PWR-L5-02Power Meter L5 PZEM 02 PZEM-L5-02-POWER PZEM L5-02 Active Power 0.00 W
533 07/09/2026 04:28:00 MB-L5-01Mainboard Lantai 5 L5-AI-01 Analog Input 1 3.05 V
534 07/09/2026 04:28:00 MB-L5-01Mainboard Lantai 5 L5-AI-05 Analog Input 5 3.05 V
535 07/09/2026 04:28:00 AC-REMOTE-01Remote AC AC-POWER AC Power State 1.00 state
536 07/09/2026 04:28:00 MB-L3-01Mainboard Lantai 3 L3-SHT-02-RH SHT20 2 Humidity 46.30 %RH
537 07/09/2026 04:28:00 PWR-L5-01Power Meter L5 PZEM 01 PZEM-L5-01-VOLT PZEM L5-01 Voltage 226.20 V
538 07/09/2026 04:28:00 PWR-L5-02Power Meter L5 PZEM 02 PZEM-L5-02-ENERGY PZEM L5-02 Energy 0.04 kWh
539 07/09/2026 04:28:00 MB-L3-01Mainboard Lantai 3 L3-LUX-03 Illuminance / LUX 3 0.20 lux
540 07/09/2026 04:28:00 MB-L3-01Mainboard Lantai 3 L3-RAD-02 Radiation 2 1.00 W/m²
541 07/09/2026 04:28:00 PWR-L5-01Power Meter L5 PZEM 01 PZEM-L5-01-POWER PZEM L5-01 Active Power 10.40 W
542 07/09/2026 04:27:00 AC-REMOTE-01Remote AC AC-MODE AC Operating Mode 1.00 code
543 07/09/2026 04:27:00 MB-L5-01Mainboard Lantai 5 L5-LUX-03 Illuminance / LUX 3 0.10 lux
544 07/09/2026 04:27:00 MB-L3-01Mainboard Lantai 3 L3-SHT-02-T SHT20 2 Temperature 28.10 °C
545 07/09/2026 04:27:00 MB-L3-01Mainboard Lantai 3 L3-AI-02 Analog Input 2 3.12 V
546 07/09/2026 04:27:00 MB-L5-01Mainboard Lantai 5 L5-SHT-03-T SHT20 3 Temperature 28.10 °C
547 07/09/2026 04:27:00 MB-L5-01Mainboard Lantai 5 L5-RAD-01 Radiation 1 1.00 W/m²
548 07/09/2026 04:27:00 AC-REMOTE-01Remote AC AC-FAN AC Fan Speed 0.00 code
549 07/09/2026 04:27:00 MB-L5-01Mainboard Lantai 5 L5-AI-03 Analog Input 3 3.05 V
550 07/09/2026 04:27:00 MB-L3-01Mainboard Lantai 3 L3-AI-06 Analog Input 6 3.12 V
551 07/09/2026 04:27:00 MB-L5-01Mainboard Lantai 5 L5-ST-01 Surface Temperature 1 22.60 °C
552 07/09/2026 04:27:00 PWR-L5-01Power Meter L5 PZEM 01 PZEM-L5-01-CURR PZEM L5-01 Current 0.12 A
553 07/09/2026 04:27:00 WS-MOD-01Weather Station Module WS-WIND Kecepatan Angin 7.55 m/s
554 07/09/2026 04:27:00 MB-L3-01Mainboard Lantai 3 L3-SHT-01-T SHT20 1 Temperature 27.80 °C
555 07/09/2026 04:27:00 PWR-L5-01Power Meter L5 PZEM 01 PZEM-L5-01-ENERGY PZEM L5-01 Energy 0.11 kWh
556 07/09/2026 04:27:00 MB-L3-01Mainboard Lantai 3 L3-AI-01 Analog Input 1 3.12 V
557 07/09/2026 04:27:00 WS-MOD-01Weather Station Module WS-TEMP Suhu Udara 18.10 °C
558 07/09/2026 04:27:00 MB-L5-01Mainboard Lantai 5 L5-SHT-02-T SHT20 2 Temperature 28.30 °C
559 07/09/2026 04:27:00 MB-L5-01Mainboard Lantai 5 L5-HFT-02 Heat Flow Temperature 2 21.60 °C
560 07/09/2026 04:27:00 PWR-L5-01Power Meter L5 PZEM 01 PZEM-L5-01-PF PZEM L5-01 Power Factor 0.39
561 07/09/2026 04:27:00 MB-L3-01Mainboard Lantai 3 L3-SHT-01-RH SHT20 1 Humidity 47.10 %RH
562 07/09/2026 04:27:00 MB-L5-01Mainboard Lantai 5 L5-BGT-03 Black Globe Temperature 3 25.80 °C
563 07/09/2026 04:27:00 MB-L3-01Mainboard Lantai 3 L3-AI-05 Analog Input 5 3.12 V
564 07/09/2026 04:27:00 WS-MOD-01Weather Station Module WS-RH Kelembapan Udara 82.10 %RH
565 07/09/2026 04:27:00 MB-L5-01Mainboard Lantai 5 L5-AI-02 Analog Input 2 3.05 V
566 07/09/2026 04:27:00 MB-L5-01Mainboard Lantai 5 L5-AI-06 Analog Input 6 3.05 V
567 07/09/2026 04:27:00 MB-L5-01Mainboard Lantai 5 L5-RAD-02 Radiation 2 1.00 W/m²
568 07/09/2026 04:27:00 MB-L3-01Mainboard Lantai 3 L3-SHT-03-RH SHT20 3 Humidity 46.20 %RH
569 07/09/2026 04:27:00 PWR-L5-02Power Meter L5 PZEM 02 PZEM-L5-02-VOLT PZEM L5-02 Voltage 226.30 V
570 07/09/2026 04:27:00 MB-L5-01Mainboard Lantai 5 L5-SHT-03-RH SHT20 3 Humidity 46.90 %RH
571 07/09/2026 04:27:00 WS-MOD-01Weather Station Module WS-PRES Tekanan Udara 910.00 hPa
572 07/09/2026 04:27:00 WS-MOD-01Weather Station Module WS-DIR Arah Angin 83.70 °
573 07/09/2026 04:27:00 PWR-L5-02Power Meter L5 PZEM 02 PZEM-L5-02-CURR PZEM L5-02 Current 0.00 A
574 07/09/2026 04:27:00 MB-L3-01Mainboard Lantai 3 L3-LUX-02 Illuminance / LUX 2 0.20 lux
575 07/09/2026 04:27:00 MB-L5-01Mainboard Lantai 5 L5-LUX-06 Illuminance / LUX 6 0.10 lux
576 07/09/2026 04:27:00 MB-L3-01Mainboard Lantai 3 L3-SHT-03-T SHT20 3 Temperature 28.40 °C
577 07/09/2026 04:27:00 MB-L5-01Mainboard Lantai 5 L5-HFT-01 Heat Flow Temperature 1 22.60 °C
578 07/09/2026 04:27:00 MB-L5-01Mainboard Lantai 5 L5-LUX-04 Illuminance / LUX 4 0.10 lux
579 07/09/2026 04:27:00 MB-L5-01Mainboard Lantai 5 L5-BGT-02 Black Globe Temperature 2 26.00 °C
580 07/09/2026 04:27:00 MB-L5-01Mainboard Lantai 5 L5-SHT-01-T SHT20 1 Temperature 27.80 °C
581 07/09/2026 04:27:00 MB-L3-01Mainboard Lantai 3 L3-LUX-04 Illuminance / LUX 4 0.10 lux
582 07/09/2026 04:27:00 MB-L3-01Mainboard Lantai 3 L3-AI-04 Analog Input 4 3.12 V
583 07/09/2026 04:27:00 PWR-L5-02Power Meter L5 PZEM 02 PZEM-L5-02-POWER PZEM L5-02 Active Power 0.00 W
584 07/09/2026 04:27:00 MB-L5-01Mainboard Lantai 5 L5-AI-01 Analog Input 1 3.05 V
585 07/09/2026 04:27:00 MB-L5-01Mainboard Lantai 5 L5-AI-05 Analog Input 5 3.05 V
586 07/09/2026 04:27:00 AC-REMOTE-01Remote AC AC-POWER AC Power State 1.00 state
587 07/09/2026 04:27:00 MB-L3-01Mainboard Lantai 3 L3-SHT-02-RH SHT20 2 Humidity 46.20 %RH
588 07/09/2026 04:27:00 PWR-L5-01Power Meter L5 PZEM 01 PZEM-L5-01-VOLT PZEM L5-01 Voltage 226.40 V
589 07/09/2026 04:27:00 PWR-L5-02Power Meter L5 PZEM 02 PZEM-L5-02-ENERGY PZEM L5-02 Energy 0.04 kWh
590 07/09/2026 04:27:00 MB-L3-01Mainboard Lantai 3 L3-LUX-03 Illuminance / LUX 3 0.20 lux
591 07/09/2026 04:27:00 MB-L3-01Mainboard Lantai 3 L3-RAD-02 Radiation 2 1.00 W/m²
592 07/09/2026 04:27:00 PWR-L5-01Power Meter L5 PZEM 01 PZEM-L5-01-POWER PZEM L5-01 Active Power 10.50 W
593 07/09/2026 04:27:00 MB-L5-01Mainboard Lantai 5 L5-SHT-02-RH SHT20 2 Humidity 46.30 %RH
594 07/09/2026 04:27:00 MB-L3-01Mainboard Lantai 3 L3-LUX-05 Illuminance / LUX 5 0.30 lux
595 07/09/2026 04:27:00 PWR-L5-02Power Meter L5 PZEM 02 PZEM-L5-02-FREQ PZEM L5-02 Frequency 50.00 Hz
596 07/09/2026 04:27:00 MB-L5-01Mainboard Lantai 5 L5-LUX-01 Illuminance / LUX 1 0.00 lux
597 07/09/2026 04:27:00 PWR-L5-01Power Meter L5 PZEM 01 PZEM-L5-01-FREQ PZEM L5-01 Frequency 50.00 Hz
598 07/09/2026 04:27:00 MB-L5-01Mainboard Lantai 5 L5-SHT-01-RH SHT20 1 Humidity 47.10 %RH
599 07/09/2026 04:27:00 MB-L3-01Mainboard Lantai 3 L3-AI-03 Analog Input 3 3.12 V
600 07/09/2026 04:27:00 AC-REMOTE-01Remote AC AC-SETPOINT AC Set Temperature 23.00 °C
Menampilkan maksimal 100 data per halaman